sensor_id;sensor_type;location;lat;lon;timestamp;P1;durP1;ratioP1;P2;durP2;ratioP2
57635;SDS011;43465;50.728;4.160;2023-10-13T12:03:40;17.40;;;7.53;;
57635;SDS011;43465;50.728;4.160;2023-10-13T12:06:25;18.67;;;7.18;;
57635;SDS011;43465;50.728;4.160;2023-10-13T12:09:02;18.30;;;7.60;;
57635;SDS011;43465;50.728;4.160;2023-10-13T12:11:44;23.20;;;7.30;;
57635;SDS011;43465;50.728;4.160;2023-10-13T12:14:10;15.30;;;6.82;;
57635;SDS011;43465;50.728;4.160;2023-10-13T12:16:42;20.55;;;6.93;;
57635;SDS011;43465;50.728;4.160;2023-10-13T12:19:19;19.08;;;7.57;;
57635;SDS011;43465;50.728;4.160;2023-10-13T12:21:49;11.00;;;6.70;;
57635;SDS011;43465;50.728;4.160;2023-10-13T12:24:15;21.67;;;7.57;;
57635;SDS011;43465;50.728;4.160;2023-10-13T12:27:16;16.77;;;7.05;;
57635;SDS011;43465;50.728;4.160;2023-10-13T12:29:45;16.40;;;6.72;;
57635;SDS011;43465;50.728;4.160;2023-10-13T12:32:15;20.55;;;7.55;;
57635;SDS011;43465;50.728;4.160;2023-10-13T12:34:46;17.40;;;7.07;;
57635;SDS011;43465;50.728;4.160;2023-10-13T12:37:27;18.60;;;7.53;;
57635;SDS011;43465;50.728;4.160;2023-10-13T12:40:15;14.82;;;7.57;;
57635;SDS011;43465;50.728;4.160;2023-10-13T12:43:03;13.80;;;7.20;;
57635;SDS011;43465;50.728;4.160;2023-10-13T12:45:48;15.48;;;6.95;;
57635;SDS011;43465;50.728;4.160;2023-10-13T12:48:34;20.33;;;7.07;;
57635;SDS011;43465;50.728;4.160;2023-10-13T12:51:19;11.68;;;6.93;;
57635;SDS011;43465;50.728;4.160;2023-10-13T12:53:49;13.50;;;6.65;;
57635;SDS011;43465;50.728;4.160;2023-10-13T12:56:16;18.30;;;7.70;;
57635;SDS011;43465;50.728;4.160;2023-10-13T12:58:42;17.38;;;7.20;;
57635;SDS011;43465;50.728;4.160;2023-10-13T13:01:19;19.33;;;6.90;;
57635;SDS011;43465;50.728;4.160;2023-10-13T13:03:46;12.10;;;6.80;;
57635;SDS011;43465;50.728;4.160;2023-10-13T13:06:18;17.77;;;6.82;;
57635;SDS011;43465;50.728;4.160;2023-10-13T13:08:59;18.08;;;6.80;;
57635;SDS011;43465;50.728;4.160;2023-10-13T13:11:25;17.95;;;6.95;;
57635;SDS011;43465;50.728;4.160;2023-10-13T13:13:53;13.77;;;6.63;;
57635;SDS011;43465;50.728;4.160;2023-10-13T13:16:19;16.08;;;7.03;;
57635;SDS011;43465;50.728;4.160;2023-10-13T13:18:51;16.98;;;6.72;;
57635;SDS011;43465;50.728;4.160;2023-10-13T13:21:19;13.25;;;6.57;;
57635;SDS011;43465;50.728;4.160;2023-10-13T13:23:48;14.73;;;6.78;;
57635;SDS011;43465;50.728;4.160;2023-10-13T13:26:14;14.98;;;7.35;;
57635;SDS011;43465;50.728;4.160;2023-10-13T13:28:44;16.52;;;7.28;;
57635;SDS011;43465;50.728;4.160;2023-10-13T13:31:10;16.50;;;7.43;;
57635;SDS011;43465;50.728;4.160;2023-10-13T13:33:40;21.52;;;7.18;;
57635;SDS011;43465;50.728;4.160;2023-10-13T13:36:08;16.92;;;6.90;;
57635;SDS011;43465;50.728;4.160;2023-10-13T13:41:14;13.07;;;7.05;;
57635;SDS011;43465;50.728;4.160;2023-10-13T13:43:43;16.60;;;7.10;;
57635;SDS011;43465;50.728;4.160;2023-10-13T13:46:24;14.43;;;6.25;;
57635;SDS011;43465;50.728;4.160;2023-10-13T13:48:52;9.88;;;6.90;;
57635;SDS011;43465;50.728;4.160;2023-10-13T13:51:23;15.75;;;7.28;;
57635;SDS011;43465;50.728;4.160;2023-10-13T13:53:53;14.90;;;7.60;;
57635;SDS011;43465;50.728;4.160;2023-10-13T13:56:19;16.40;;;7.32;;
57635;SDS011;43465;50.728;4.160;2023-10-13T13:58:45;14.68;;;7.13;;
57635;SDS011;43465;50.728;4.160;2023-10-13T14:01:21;13.10;;;7.22;;
57635;SDS011;43465;50.728;4.160;2023-10-13T14:03:50;15.60;;;6.90;;
57635;SDS011;43465;50.728;4.160;2023-10-13T14:06:16;11.00;;;6.93;;
57635;SDS011;43465;50.728;4.160;2023-10-13T14:08:48;16.20;;;6.68;;
57635;SDS011;43465;50.728;4.160;2023-10-13T14:11:20;17.38;;;7.22;;
57635;SDS011;43465;50.728;4.160;2023-10-13T14:13:48;11.63;;;6.80;;
57635;SDS011;43465;50.728;4.160;2023-10-13T14:16:15;13.57;;;6.75;;
57635;SDS011;43465;50.728;4.160;2023-10-13T14:18:45;17.55;;;7.50;;
57635;SDS011;43465;50.728;4.160;2023-10-13T14:21:12;13.13;;;6.80;;
57635;SDS011;43465;50.728;4.160;2023-10-13T14:23:47;14.30;;;7.18;;
57635;SDS011;43465;50.728;4.160;2023-10-13T14:26:17;13.32;;;6.75;;
57635;SDS011;43465;50.728;4.160;2023-10-13T14:28:49;18.65;;;7.43;;
57635;SDS011;43465;50.728;4.160;2023-10-13T14:31:19;11.82;;;6.97;;
57635;SDS011;43465;50.728;4.160;2023-10-13T14:33:47;12.70;;;7.47;;
57635;SDS011;43465;50.728;4.160;2023-10-13T14:36:12;17.13;;;7.35;;
57635;SDS011;43465;50.728;4.160;2023-10-13T14:38:38;17.77;;;7.70;;
57635;SDS011;43465;50.728;4.160;2023-10-13T14:41:09;14.15;;;7.30;;
57635;SDS011;43465;50.728;4.160;2023-10-13T14:43:35;13.55;;;6.97;;
57635;SDS011;43465;50.728;4.160;2023-10-13T14:46:00;15.98;;;7.35;;
57635;SDS011;43465;50.728;4.160;2023-10-13T14:48:26;11.75;;;7.40;;
57635;SDS011;43465;50.728;4.160;2023-10-13T14:50:52;18.33;;;7.50;;
57635;SDS011;43465;50.728;4.160;2023-10-13T14:53:17;18.70;;;7.68;;
57635;SDS011;43465;50.728;4.160;2023-10-13T14:55:44;15.07;;;7.80;;
57635;SDS011;43465;50.728;4.160;2023-10-13T14:58:10;13.90;;;7.35;;
57635;SDS011;43465;50.728;4.160;2023-10-13T15:00:41;11.43;;;6.78;;
57635;SDS011;43465;50.728;4.160;2023-10-13T15:03:10;20.30;;;7.97;;
57635;SDS011;43465;50.728;4.160;2023-10-13T15:05:39;16.77;;;7.43;;
57635;SDS011;43465;50.728;4.160;2023-10-13T15:08:08;17.20;;;7.60;;
57635;SDS011;43465;50.728;4.160;2023-10-13T15:10:37;14.02;;;7.45;;
57635;SDS011;43465;50.728;4.160;2023-10-13T15:13:03;13.27;;;7.35;;
57635;SDS011;43465;50.728;4.160;2023-10-13T15:15:30;13.13;;;7.72;;
57635;SDS011;43465;50.728;4.160;2023-10-13T15:17:57;13.50;;;7.55;;
57635;SDS011;43465;50.728;4.160;2023-10-13T15:20:23;16.08;;;7.78;;
57635;SDS011;43465;50.728;4.160;2023-10-13T15:22:49;14.60;;;7.70;;
57635;SDS011;43465;50.728;4.160;2023-10-13T15:25:15;11.20;;;7.60;;
57635;SDS011;43465;50.728;4.160;2023-10-13T15:28:07;15.05;;;7.70;;
57635;SDS011;43465;50.728;4.160;2023-10-13T15:30:35;16.30;;;7.75;;
57635;SDS011;43465;50.728;4.160;2023-10-13T15:33:12;18.20;;;8.05;;
57635;SDS011;43465;50.728;4.160;2023-10-13T15:35:39;19.35;;;7.65;;
57635;SDS011;43465;50.728;4.160;2023-10-13T15:38:08;14.82;;;7.40;;
57635;SDS011;43465;50.728;4.160;2023-10-13T15:40:39;14.77;;;7.90;;
57635;SDS011;43465;50.728;4.160;2023-10-13T15:43:07;14.68;;;7.90;;
57635;SDS011;43465;50.728;4.160;2023-10-13T15:45:32;15.05;;;7.07;;
57635;SDS011;43465;50.728;4.160;2023-10-13T15:48:04;14.85;;;7.82;;
57635;SDS011;43465;50.728;4.160;2023-10-13T15:50:37;11.38;;;7.18;;
57635;SDS011;43465;50.728;4.160;2023-10-13T15:53:07;14.45;;;7.57;;
57635;SDS011;43465;50.728;4.160;2023-10-13T15:55:36;14.60;;;7.63;;
57635;SDS011;43465;50.728;4.160;2023-10-13T15:58:02;12.82;;;7.00;;
57635;SDS011;43465;50.728;4.160;2023-10-13T16:00:32;13.20;;;7.20;;
57635;SDS011;43465;50.728;4.160;2023-10-13T16:03:00;16.92;;;8.18;;
57635;SDS011;43465;50.728;4.160;2023-10-13T16:05:29;18.73;;;7.50;;
57635;SDS011;43465;50.728;4.160;2023-10-13T16:07:59;14.85;;;7.28;;
57635;SDS011;43465;50.728;4.160;2023-10-13T16:10:25;18.60;;;7.22;;
57635;SDS011;43465;50.728;4.160;2023-10-13T16:12:52;15.02;;;7.18;;
57635;SDS011;43465;50.728;4.160;2023-10-13T16:15:18;10.73;;;7.20;;
57635;SDS011;43465;50.728;4.160;2023-10-13T16:17:46;15.73;;;7.60;;
57635;SDS011;43465;50.728;4.160;2023-10-13T16:20:12;17.58;;;7.85;;
57635;SDS011;43465;50.728;4.160;2023-10-13T16:22:44;16.60;;;8.10;;
57635;SDS011;43465;50.728;4.160;2023-10-13T16:25:11;19.30;;;8.80;;
57635;SDS011;43465;50.728;4.160;2023-10-13T16:27:38;15.63;;;7.70;;
57635;SDS011;43465;50.728;4.160;2023-10-13T16:30:12;19.30;;;8.82;;
57635;SDS011;43465;50.728;4.160;2023-10-13T16:32:45;16.35;;;7.90;;
57635;SDS011;43465;50.728;4.160;2023-10-13T16:35:14;15.82;;;8.70;;
57635;SDS011;43465;50.728;4.160;2023-10-13T16:40:14;16.95;;;8.52;;
57635;SDS011;43465;50.728;4.160;2023-10-13T16:42:40;14.55;;;8.20;;
57635;SDS011;43465;50.728;4.160;2023-10-13T16:45:06;14.63;;;8.35;;
57635;SDS011;43465;50.728;4.160;2023-10-13T16:47:45;13.80;;;8.30;;
57635;SDS011;43465;50.728;4.160;2023-10-13T16:50:14;14.02;;;8.35;;
57635;SDS011;43465;50.728;4.160;2023-10-13T16:52:44;15.68;;;8.25;;
57635;SDS011;43465;50.728;4.160;2023-10-13T16:55:14;17.42;;;8.73;;
57635;SDS011;43465;50.728;4.160;2023-10-13T16:57:43;16.98;;;8.50;;
57635;SDS011;43465;50.728;4.160;2023-10-13T17:00:09;15.18;;;8.15;;
57635;SDS011;43465;50.728;4.160;2023-10-13T17:02:40;18.30;;;8.55;;
57635;SDS011;43465;50.728;4.160;2023-10-13T17:05:10;14.45;;;8.50;;
57635;SDS011;43465;50.728;4.160;2023-10-13T17:07:42;12.88;;;8.60;;
57635;SDS011;43465;50.728;4.160;2023-10-13T17:10:12;18.52;;;8.48;;
57635;SDS011;43465;50.728;4.160;2023-10-13T17:12:42;17.83;;;8.25;;
57635;SDS011;43465;50.728;4.160;2023-10-13T17:15:08;14.57;;;8.60;;
57635;SDS011;43465;50.728;4.160;2023-10-13T17:17:47;16.48;;;8.35;;
57635;SDS011;43465;50.728;4.160;2023-10-13T17:20:14;16.80;;;8.93;;
57635;SDS011;43465;50.728;4.160;2023-10-13T17:22:42;14.65;;;8.13;;
57635;SDS011;43465;50.728;4.160;2023-10-13T17:25:08;19.15;;;8.30;;
57635;SDS011;43465;50.728;4.160;2023-10-13T17:27:38;14.77;;;7.97;;
57635;SDS011;43465;50.728;4.160;2023-10-13T17:30:07;19.73;;;8.55;;
57635;SDS011;43465;50.728;4.160;2023-10-13T17:32:34;21.08;;;8.82;;
57635;SDS011;43465;50.728;4.160;2023-10-13T17:35:01;21.60;;;8.35;;
57635;SDS011;43465;50.728;4.160;2023-10-13T17:37:28;14.27;;;8.30;;
57635;SDS011;43465;50.728;4.160;2023-10-13T17:39:58;17.20;;;8.80;;
57635;SDS011;43465;50.728;4.160;2023-10-13T17:42:28;17.23;;;7.75;;
57635;SDS011;43465;50.728;4.160;2023-10-13T17:44:54;18.92;;;8.05;;
57635;SDS011;43465;50.728;4.160;2023-10-13T17:47:20;16.55;;;7.85;;
57635;SDS011;43465;50.728;4.160;2023-10-13T17:49:46;18.40;;;7.60;;
57635;SDS011;43465;50.728;4.160;2023-10-13T17:52:12;17.40;;;7.70;;
57635;SDS011;43465;50.728;4.160;2023-10-13T17:54:39;16.23;;;7.80;;
57635;SDS011;43465;50.728;4.160;2023-10-13T17:57:05;18.60;;;8.07;;
57635;SDS011;43465;50.728;4.160;2023-10-13T17:59:34;19.88;;;8.10;;
57635;SDS011;43465;50.728;4.160;2023-10-13T18:02:00;18.85;;;8.40;;
57635;SDS011;43465;50.728;4.160;2023-10-13T18:04:28;13.35;;;7.20;;
57635;SDS011;43465;50.728;4.160;2023-10-13T18:06:56;16.52;;;8.15;;
57635;SDS011;43465;50.728;4.160;2023-10-13T18:09:22;16.58;;;8.23;;
57635;SDS011;43465;50.728;4.160;2023-10-13T18:11:49;14.90;;;9.15;;
57635;SDS011;43465;50.728;4.160;2023-10-13T18:14:15;16.77;;;9.30;;
57635;SDS011;43465;50.728;4.160;2023-10-13T18:16:42;19.92;;;9.68;;
57635;SDS011;43465;50.728;4.160;2023-10-13T18:19:09;25.55;;;10.57;;
57635;SDS011;43465;50.728;4.160;2023-10-13T18:21:35;23.98;;;10.57;;
57635;SDS011;43465;50.728;4.160;2023-10-13T18:24:01;18.48;;;10.32;;
57635;SDS011;43465;50.728;4.160;2023-10-13T18:26:28;23.02;;;10.13;;
57635;SDS011;43465;50.728;4.160;2023-10-13T18:28:54;16.10;;;10.07;;
57635;SDS011;43465;50.728;4.160;2023-10-13T18:31:21;19.40;;;10.10;;
57635;SDS011;43465;50.728;4.160;2023-10-13T18:33:46;20.13;;;9.98;;
57635;SDS011;43465;50.728;4.160;2023-10-13T18:36:16;16.80;;;9.48;;
57635;SDS011;43465;50.728;4.160;2023-10-13T18:38:47;20.48;;;9.05;;
57635;SDS011;43465;50.728;4.160;2023-10-13T18:41:19;19.83;;;9.82;;
57635;SDS011;43465;50.728;4.160;2023-10-13T18:43:47;16.88;;;9.38;;
57635;SDS011;43465;50.728;4.160;2023-10-13T18:46:15;21.17;;;10.30;;
57635;SDS011;43465;50.728;4.160;2023-10-13T18:48:46;22.52;;;10.88;;
57635;SDS011;43465;50.728;4.160;2023-10-13T18:51:17;20.77;;;10.98;;
57635;SDS011;43465;50.728;4.160;2023-10-13T18:53:48;23.77;;;11.23;;
57635;SDS011;43465;50.728;4.160;2023-10-13T18:56:15;21.77;;;10.77;;
57635;SDS011;43465;50.728;4.160;2023-10-13T18:58:45;22.88;;;10.52;;
57635;SDS011;43465;50.728;4.160;2023-10-13T19:03:50;17.38;;;9.45;;
57635;SDS011;43465;50.728;4.160;2023-10-13T19:06:18;23.30;;;10.32;;
57635;SDS011;43465;50.728;4.160;2023-10-13T19:08:45;24.85;;;9.63;;
57635;SDS011;43465;50.728;4.160;2023-10-13T19:11:11;16.90;;;8.70;;
57635;SDS011;43465;50.728;4.160;2023-10-13T19:13:37;19.13;;;9.02;;
57635;SDS011;43465;50.728;4.160;2023-10-13T19:16:05;21.15;;;9.38;;
57635;SDS011;43465;50.728;4.160;2023-10-13T19:18:37;20.92;;;9.00;;
57635;SDS011;43465;50.728;4.160;2023-10-13T19:21:08;20.95;;;8.20;;
57635;SDS011;43465;50.728;4.160;2023-10-13T19:23:42;23.50;;;9.57;;
57635;SDS011;43465;50.728;4.160;2023-10-13T19:26:14;24.77;;;8.93;;
57635;SDS011;43465;50.728;4.160;2023-10-13T19:28:40;17.75;;;8.95;;
57635;SDS011;43465;50.728;4.160;2023-10-13T19:31:07;17.65;;;9.98;;
57635;SDS011;43465;50.728;4.160;2023-10-13T19:33:33;20.85;;;10.50;;
57635;SDS011;43465;50.728;4.160;2023-10-13T19:36:02;18.58;;;10.48;;
57635;SDS011;43465;50.728;4.160;2023-10-13T19:38:29;19.67;;;10.13;;
57635;SDS011;43465;50.728;4.160;2023-10-13T19:40:55;20.40;;;10.57;;
57635;SDS011;43465;50.728;4.160;2023-10-13T19:43:20;21.23;;;10.18;;
57635;SDS011;43465;50.728;4.160;2023-10-13T19:45:46;18.92;;;9.85;;
57635;SDS011;43465;50.728;4.160;2023-10-13T19:48:13;16.08;;;9.10;;
57635;SDS011;43465;50.728;4.160;2023-10-13T19:50:39;16.63;;;9.43;;
57635;SDS011;43465;50.728;4.160;2023-10-13T19:53:05;24.90;;;9.40;;
57635;SDS011;43465;50.728;4.160;2023-10-13T19:55:38;18.40;;;9.73;;
57635;SDS011;43465;50.728;4.160;2023-10-13T19:58:07;23.45;;;9.18;;
57635;SDS011;43465;50.728;4.160;2023-10-13T20:00:34;21.25;;;9.65;;
57635;SDS011;43465;50.728;4.160;2023-10-13T20:03:00;16.10;;;9.60;;
57635;SDS011;43465;50.728;4.160;2023-10-13T20:05:26;18.20;;;8.95;;
57635;SDS011;43465;50.728;4.160;2023-10-13T20:07:51;20.85;;;9.57;;
57635;SDS011;43465;50.728;4.160;2023-10-13T20:10:19;25.38;;;8.98;;
57635;SDS011;43465;50.728;4.160;2023-10-13T20:12:46;19.20;;;9.50;;
57635;SDS011;43465;50.728;4.160;2023-10-13T20:15:12;19.40;;;8.35;;
57635;SDS011;43465;50.728;4.160;2023-10-13T20:17:44;20.40;;;8.38;;
57635;SDS011;43465;50.728;4.160;2023-10-13T20:20:10;21.15;;;9.10;;
57635;SDS011;43465;50.728;4.160;2023-10-13T20:22:37;14.75;;;8.45;;
57635;SDS011;43465;50.728;4.160;2023-10-13T20:25:06;18.38;;;8.45;;
57635;SDS011;43465;50.728;4.160;2023-10-13T20:27:33;22.48;;;9.32;;
57635;SDS011;43465;50.728;4.160;2023-10-13T20:29:59;18.90;;;9.20;;
57635;SDS011;43465;50.728;4.160;2023-10-13T20:32:33;16.83;;;8.95;;
57635;SDS011;43465;50.728;4.160;2023-10-13T20:34:59;21.30;;;9.40;;
57635;SDS011;43465;50.728;4.160;2023-10-13T20:37:25;19.73;;;9.98;;
57635;SDS011;43465;50.728;4.160;2023-10-13T20:39:54;18.33;;;8.98;;
57635;SDS011;43465;50.728;4.160;2023-10-13T20:42:20;20.90;;;8.95;;
57635;SDS011;43465;50.728;4.160;2023-10-13T20:44:46;21.38;;;9.32;;
57635;SDS011;43465;50.728;4.160;2023-10-13T20:47:11;18.42;;;9.52;;
57635;SDS011;43465;50.728;4.160;2023-10-13T20:49:38;17.67;;;9.10;;
57635;SDS011;43465;50.728;4.160;2023-10-13T20:52:04;18.48;;;9.27;;
57635;SDS011;43465;50.728;4.160;2023-10-13T20:54:31;20.30;;;8.98;;
57635;SDS011;43465;50.728;4.160;2023-10-13T20:56:57;17.73;;;8.80;;
57635;SDS011;43465;50.728;4.160;2023-10-13T20:59:22;16.75;;;8.75;;
57635;SDS011;43465;50.728;4.160;2023-10-13T21:01:48;18.30;;;8.50;;
57635;SDS011;43465;50.728;4.160;2023-10-13T21:04:14;15.27;;;8.80;;
57635;SDS011;43465;50.728;4.160;2023-10-13T21:06:39;15.85;;;8.75;;
57635;SDS011;43465;50.728;4.160;2023-10-13T21:09:05;16.63;;;7.90;;
57635;SDS011;43465;50.728;4.160;2023-10-13T21:11:34;17.05;;;7.88;;
57635;SDS011;43465;50.728;4.160;2023-10-13T21:14:00;17.38;;;7.97;;
57635;SDS011;43465;50.728;4.160;2023-10-13T21:16:26;19.92;;;7.22;;
57635;SDS011;43465;50.728;4.160;2023-10-13T21:18:52;15.70;;;7.63;;
57635;SDS011;43465;50.728;4.160;2023-10-13T21:21:18;19.05;;;7.65;;
57635;SDS011;43465;50.728;4.160;2023-10-13T21:23:49;13.02;;;7.68;;
57635;SDS011;43465;50.728;4.160;2023-10-13T21:26:23;12.30;;;7.40;;
57635;SDS011;43465;50.728;4.160;2023-10-13T21:28:51;18.52;;;7.90;;
57635;SDS011;43465;50.728;4.160;2023-10-13T21:31:17;17.90;;;8.43;;
57635;SDS011;43465;50.728;4.160;2023-10-13T21:33:47;15.48;;;8.05;;
57635;SDS011;43465;50.728;4.160;2023-10-13T21:36:14;13.65;;;8.07;;
57635;SDS011;43465;50.728;4.160;2023-10-13T21:38:44;16.70;;;9.07;;
57635;SDS011;43465;50.728;4.160;2023-10-13T21:41:12;19.20;;;8.27;;
57635;SDS011;43465;50.728;4.160;2023-10-13T21:43:39;17.20;;;9.10;;
57635;SDS011;43465;50.728;4.160;2023-10-13T21:46:08;19.55;;;9.13;;
57635;SDS011;43465;50.728;4.160;2023-10-13T21:48:38;16.33;;;9.35;;
57635;SDS011;43465;50.728;4.160;2023-10-13T21:51:07;14.77;;;8.85;;
57635;SDS011;43465;50.728;4.160;2023-10-13T21:53:34;18.70;;;9.05;;
57635;SDS011;43465;50.728;4.160;2023-10-13T21:56:00;15.13;;;8.43;;
57635;SDS011;43465;50.728;4.160;2023-10-13T21:58:27;19.17;;;7.68;;
57635;SDS011;43465;50.728;4.160;2023-10-13T22:00:53;17.73;;;7.82;;
57635;SDS011;43465;50.728;4.160;2023-10-13T22:03:21;18.30;;;8.38;;
57635;SDS011;43465;50.728;4.160;2023-10-13T22:05:48;18.52;;;8.65;;
57635;SDS011;43465;50.728;4.160;2023-10-13T22:08:14;18.10;;;8.25;;
57635;SDS011;43465;50.728;4.160;2023-10-13T22:10:39;16.65;;;8.30;;
57635;SDS011;43465;50.728;4.160;2023-10-13T22:13:05;16.88;;;7.20;;
57635;SDS011;43465;50.728;4.160;2023-10-13T22:15:32;15.80;;;6.78;;
57635;SDS011;43465;50.728;4.160;2023-10-13T22:17:58;16.00;;;5.80;;
57635;SDS011;43465;50.728;4.160;2023-10-13T22:20:23;17.05;;;5.72;;
57635;SDS011;43465;50.728;4.160;2023-10-13T22:22:50;12.02;;;5.57;;
57635;SDS011;43465;50.728;4.160;2023-10-13T22:25:16;16.27;;;5.68;;
57635;SDS011;43465;50.728;4.160;2023-10-13T22:27:44;11.30;;;4.72;;
57635;SDS011;43465;50.728;4.160;2023-10-13T22:30:11;9.95;;;4.40;;
57635;SDS011;43465;50.728;4.160;2023-10-13T22:32:47;10.68;;;4.28;;
57635;SDS011;43465;50.728;4.160;2023-10-13T22:35:14;13.25;;;3.95;;
57635;SDS011;43465;50.728;4.160;2023-10-13T22:37:52;16.35;;;3.63;;
57635;SDS011;43465;50.728;4.160;2023-10-13T22:40:19;9.48;;;2.97;;
57635;SDS011;43465;50.728;4.160;2023-10-13T22:42:46;8.05;;;2.55;;
57635;SDS011;43465;50.728;4.160;2023-10-13T22:45:16;9.63;;;2.28;;
57635;SDS011;43465;50.728;4.160;2023-10-13T22:50:15;9.48;;;2.10;;
57635;SDS011;43465;50.728;4.160;2023-10-13T22:52:46;7.55;;;1.85;;
57635;SDS011;43465;50.728;4.160;2023-10-13T22:55:15;5.47;;;1.90;;
57635;SDS011;43465;50.728;4.160;2023-10-13T22:57:48;4.07;;;1.40;;
57635;SDS011;43465;50.728;4.160;2023-10-13T23:00:19;8.07;;;1.83;;
57635;SDS011;43465;50.728;4.160;2023-10-13T23:03:05;7.65;;;1.70;;
57635;SDS011;43465;50.728;4.160;2023-10-13T23:05:33;5.88;;;1.52;;
57635;SDS011;43465;50.728;4.160;2023-10-13T23:10:46;6.88;;;1.50;;
57635;SDS011;43465;50.728;4.160;2023-10-13T23:13:19;8.13;;;1.97;;
57635;SDS011;43465;50.728;4.160;2023-10-13T23:15:46;7.30;;;1.98;;
57635;SDS011;43465;50.728;4.160;2023-10-13T23:18:12;11.60;;;2.40;;
57635;SDS011;43465;50.728;4.160;2023-10-13T23:20:40;13.30;;;2.38;;
57635;SDS011;43465;50.728;4.160;2023-10-13T23:23:09;14.18;;;3.10;;
57635;SDS011;43465;50.728;4.160;2023-10-13T23:25:36;12.20;;;2.90;;
57635;SDS011;43465;50.728;4.160;2023-10-13T23:28:06;12.85;;;3.08;;
57635;SDS011;43465;50.728;4.160;2023-10-13T23:30:33;14.50;;;2.97;;
57635;SDS011;43465;50.728;4.160;2023-10-13T23:33:01;10.27;;;2.63;;
57635;SDS011;43465;50.728;4.160;2023-10-13T23:35:27;14.20;;;3.20;;
57635;SDS011;43465;50.728;4.160;2023-10-13T23:37:56;14.88;;;3.20;;
57635;SDS011;43465;50.728;4.160;2023-10-13T23:40:24;16.98;;;3.35;;
57635;SDS011;43465;50.728;4.160;2023-10-13T23:42:58;9.43;;;3.03;;
57635;SDS011;43465;50.728;4.160;2023-10-13T23:45:31;10.82;;;3.08;;
57635;SDS011;43465;50.728;4.160;2023-10-13T23:48:08;18.67;;;4.15;;
57635;SDS011;43465;50.728;4.160;2023-10-13T23:50:40;13.90;;;3.75;;
57635;SDS011;43465;50.728;4.160;2023-10-13T23:53:16;18.88;;;4.13;;
57635;SDS011;43465;50.728;4.160;2023-10-13T23:55:46;12.27;;;3.70;;
57635;SDS011;43465;50.728;4.160;2023-10-13T23:58:13;16.58;;;4.07;;
